Time;durP1;ratioP1;P1;durP2;ratioP2;P2;SDS_P1;SDS_P2;PMS_P1;PMS_P2;Temp;Humidity;BMP_temperature;BMP_pressure;BME280_temperature;BME280_humidity;BME280_pressure;Samples;Min_cycle;Max_cycle;Signal;HPM_P1;HPM_P2
2023/01/03 00:01:12;;;;;;;;;;;;;;;10.44;70.95;102478.22;5015977;28;20324;-74
2023/01/03 00:03:37;;;;;;;;;;;;;;;10.43;70.81;102479.25;5019458;28;20008;-74
2023/01/03 00:06:02;;;;;;;;;;;;;;;10.41;70.87;102471.34;5016103;28;19924;-74
2023/01/03 00:08:28;;;;;;;;;;;;;;;10.39;70.80;102468.84;5015730;28;19924;-75
2023/01/03 00:10:53;;;;;;;;;;;;;;;10.39;70.80;102466.13;5015412;28;19924;-74
2023/01/03 00:13:18;;;;;;;;;;;;;;;10.38;70.77;102461.78;5015456;28;19964;-72
2023/01/03 00:15:44;;;;;;;;;;;;;;;10.37;70.82;102453.88;5015918;28;20310;-74
2023/01/03 00:18:09;;;;;;;;;;;;;;;10.36;70.93;102457.63;5015616;28;19921;-74
2023/01/03 00:20:34;;;;;;;;;;;;;;;10.35;70.80;102453.22;5015415;28;20297;-74
2023/01/03 00:23:00;;;;;;;;;;;;;;;10.34;70.78;102460.50;5015586;28;19924;-74
2023/01/03 00:25:26;;;;;;;;;;;;;;;10.32;70.76;102459.03;5015463;28;19956;-75
2023/01/03 00:27:51;;;;;;;;;;;;;;;10.32;70.66;102467.97;5015815;28;19967;-74
2023/01/03 00:30:16;;;;;;;;;;;;;;;10.31;70.65;102463.59;5015039;28;19917;-74
2023/01/03 00:32:42;;;;;;;;;;;;;;;10.29;70.41;102454.88;5015267;28;20384;-74
2023/01/03 00:35:07;;;;;;;;;;;;;;;10.29;70.67;102460.25;5015640;28;19924;-75
2023/01/03 00:37:33;;;;;;;;;;;;;;;10.28;70.64;102457.75;5015651;28;19918;-75
2023/01/03 00:39:58;;;;;;;;;;;;;;;10.26;70.66;102457.94;5015425;28;20327;-74
2023/01/03 00:42:24;;;;;;;;;;;;;;;10.25;70.60;102466.22;5015631;28;20019;-75
2023/01/03 00:44:49;;;;;;;;;;;;;;;10.24;70.68;102469.97;5015101;28;20004;-75
2023/01/03 00:47:14;;;;;;;;;;;;;;;10.23;70.81;102460.19;5015117;28;20259;-74
2023/01/03 00:49:39;;;;;;;;;;;;;;;10.21;70.57;102462.28;5015507;28;19914;-74
2023/01/03 00:52:05;;;;;;;;;;;;;;;10.20;70.59;102464.13;5015264;28;20352;-74
2023/01/03 00:54:30;;;;;;;;;;;;;;;10.19;70.55;102468.69;5013785;28;19924;-76
2023/01/03 00:56:55;;;;;;;;;;;;;;;10.17;70.51;102473.44;5014663;28;19964;-75
2023/01/03 00:59:20;;;;;;;;;;;;;;;10.17;70.52;102475.31;5014936;28;19917;-74
2023/01/03 01:01:53;;;;;;;;;;;;;;;10.14;70.61;102479.25;5014314;28;19920;-75
2023/01/03 01:04:21;;;;;;;;;;;;;;;10.13;70.55;102483.00;5013462;28;19917;-75
2023/01/03 01:06:48;;;;;;;;;;;;;;;10.12;70.46;102477.78;5014778;28;19913;-74
2023/01/03 01:09:15;;;;;;;;;;;;;;;10.11;70.42;102482.34;5015582;28;19913;-74
2023/01/03 01:11:41;;;;;;;;;;;;;;;10.10;70.49;102482.53;5013609;28;20368;-75
2023/01/03 01:14:18;;;;;;;;;;;;;;;10.09;70.39;102486.28;5014708;28;19913;-75
2023/01/03 01:16:48;;;;;;;;;;;;;;;10.07;70.26;102489.16;5014728;28;19968;-75
2023/01/03 01:19:14;;;;;;;;;;;;;;;10.06;70.17;102494.78;5015051;28;19913;-75
2023/01/03 01:21:40;;;;;;;;;;;;;;;10.04;70.37;102496.84;5014510;28;19920;-75
2023/01/03 01:24:05;;;;;;;;;;;;;;;10.02;70.42;102502.41;5014092;28;19983;-75
2023/01/03 01:26:30;;;;;;;;;;;;;;;10.00;70.32;102493.66;5014521;28;19921;-75
2023/01/03 01:28:55;;;;;;;;;;;;;;;10.00;70.38;102496.38;5014144;28;19920;-75
2023/01/03 01:31:22;;;;;;;;;;;;;;;9.98;70.42;102495.75;5014391;28;19944;-75
2023/01/03 01:33:47;;;;;;;;;;;;;;;9.97;70.26;102496.78;5013277;28;19913;-75
2023/01/03 01:36:17;;;;;;;;;;;;;;;9.96;70.21;102498.63;5014309;28;19925;-75
2023/01/03 01:38:43;;;;;;;;;;;;;;;9.94;70.16;102499.88;5012821;28;19963;-75
2023/01/03 01:41:10;;;;;;;;;;;;;;;9.93;70.18;102503.59;5013791;28;20000;-75
2023/01/03 01:46:37;;;;;;;;;;;;;;;9.89;70.14;102508.53;5014741;28;19967;-75
2023/01/03 01:49:04;;;;;;;;;;;;;;;9.88;70.23;102506.06;5014463;28;19921;-74
2023/01/03 01:51:30;;;;;;;;;;;;;;;9.87;70.19;102509.78;5013879;28;20385;-75
2023/01/03 01:53:59;;;;;;;;;;;;;;;9.85;70.14;102518.06;5013787;28;19921;-75
2023/01/03 01:56:27;;;;;;;;;;;;;;;9.83;70.09;102509.34;5014661;28;19913;-74
2023/01/03 01:58:53;;;;;;;;;;;;;;;9.83;70.18;102514.72;5014035;28;19913;-75
2023/01/03 02:01:20;;;;;;;;;;;;;;;9.81;69.99;102513.25;5014025;28;19967;-75
2023/01/03 02:03:50;;;;;;;;;;;;;;;9.80;70.03;102508.88;5013791;28;19926;-75
2023/01/03 02:06:16;;;;;;;;;;;;;;;9.77;70.11;102510.09;5014237;28;19924;-75
2023/01/03 02:08:41;;;;;;;;;;;;;;;9.78;69.93;102510.91;5013949;28;19918;-75
2023/01/03 02:11:06;;;;;;;;;;;;;;;9.76;70.01;102508.44;5013965;28;19925;-75
2023/01/03 02:13:50;;;;;;;;;;;;;;;9.74;69.89;102507.78;5012922;28;19920;-76
2023/01/03 02:16:25;;;;;;;;;;;;;;;9.72;69.98;102504.44;5013954;28;19920;-75
2023/01/03 02:19:05;;;;;;;;;;;;;;;9.71;70.00;102513.59;5013770;28;19922;-75
2023/01/03 02:21:33;;;;;;;;;;;;;;;9.68;69.90;102517.50;5013894;28;19920;-75
2023/01/03 02:24:18;;;;;;;;;;;;;;;9.67;69.98;102523.91;5013448;28;20420;-75
2023/01/03 02:26:54;;;;;;;;;;;;;;;9.65;69.75;102520.59;5006254;28;19913;-75
2023/01/03 02:29:37;;;;;;;;;;;;;;;9.63;69.74;102525.34;5013863;28;20354;-75
2023/01/03 02:32:33;;;;;;;;;;;;;;;9.62;69.84;102529.03;5013815;28;19920;-74
2023/01/03 02:35:01;;;;;;;;;;;;;;;9.59;69.77;102524.03;5005143;28;19963;-74
2023/01/03 02:37:35;;;;;;;;;;;;;;;9.59;69.66;102531.31;5013621;28;19914;-75
2023/01/03 02:40:12;;;;;;;;;;;;;;;9.57;69.75;102531.50;5013592;28;19917;-75
2023/01/03 02:45:54;;;;;;;;;;;;;;;9.53;69.73;102522.97;5013427;28;20360;-75
2023/01/03 02:48:25;;;;;;;;;;;;;;;9.51;69.58;102527.69;5004795;28;19913;-74
2023/01/03 02:50:52;;;;;;;;;;;;;;;9.50;69.75;102523.34;5014747;28;19914;-74
2023/01/03 02:53:25;;;;;;;;;;;;;;;9.48;69.75;102525.41;5016716;28;20249;-74
2023/01/03 02:55:51;;;;;;;;;;;;;;;9.47;69.65;102523.72;5017205;28;19913;-75
2023/01/03 02:58:22;;;;;;;;;;;;;;;9.46;69.74;102521.22;5016883;28;19921;-74
2023/01/03 03:00:50;;;;;;;;;;;;;;;9.45;69.74;102522.22;5017123;28;19920;-75
2023/01/03 03:03:17;;;;;;;;;;;;;;;9.44;69.71;102537.59;5016960;28;19968;-74
2023/01/03 03:05:48;;;;;;;;;;;;;;;9.43;69.49;102524.31;5017783;28;19959;-73
2023/01/03 03:08:14;;;;;;;;;;;;;;;9.41;69.59;102527.19;5017300;28;20342;-75
2023/01/03 03:13:32;;;;;;;;;;;;;;;9.38;69.58;102529.44;5016662;28;20000;-75
2023/01/03 03:16:00;;;;;;;;;;;;;;;9.36;69.69;102528.78;5016803;28;19953;-75
2023/01/03 03:18:49;;;;;;;;;;;;;;;9.35;69.85;102533.34;5016754;28;19920;-75
2023/01/03 03:26:46;;;;;;;;;;;;;;;9.29;69.59;102531.41;5017142;28;19921;-74
2023/01/03 03:29:14;;;;;;;;;;;;;;;9.29;69.65;102528.72;5016369;28;19939;-75
2023/01/03 03:31:41;;;;;;;;;;;;;;;9.27;69.59;102526.22;5016458;28;19913;-74
2023/01/03 03:34:06;;;;;;;;;;;;;;;9.26;69.58;102526.41;5016404;28;19918;-74
2023/01/03 03:36:44;;;;;;;;;;;;;;;9.25;69.61;102522.03;5015113;28;20390;-75
2023/01/03 03:44:59;;;;;;;;;;;;;;;9.24;69.59;102523.03;5016031;28;19940;-74
2023/01/03 03:44:59;;;;;;;;;;;;;;;9.21;69.77;102520.75;5016468;28;19920;-74
2023/01/03 03:47:24;;;;;;;;;;;;;;;9.19;69.49;102528.16;5016043;28;19917;-75
2023/01/03 03:49:51;;;;;;;;;;;;;;;9.18;69.68;102523.81;5015079;28;20350;-74
2023/01/03 03:52:20;;;;;;;;;;;;;;;9.16;69.69;102524.00;5016181;28;19913;-75
2023/01/03 03:55:08;;;;;;;;;;;;;;;9.15;69.58;102518.78;5016534;28;19964;-74
2023/01/03 03:57:44;;;;;;;;;;;;;;;9.13;69.42;102519.00;5010299;28;19960;-74
2023/01/03 04:00:13;;;;;;;;;;;;;;;9.12;69.45;102521.88;5016074;28;19964;-74
2023/01/03 04:02:40;;;;;;;;;;;;;;;9.10;69.50;102513.97;5015112;28;20008;-74
2023/01/03 04:05:08;;;;;;;;;;;;;;;9.09;69.79;102523.91;5016349;28;19917;-75
2023/01/03 04:07:33;;;;;;;;;;;;;;;9.09;69.52;102523.06;5016203;28;19913;-74
2023/01/03 04:09:59;;;;;;;;;;;;;;;9.06;69.53;102529.69;5016248;28;19920;-75
2023/01/03 04:12:24;;;;;;;;;;;;;;;9.06;69.53;102518.06;5015803;28;19959;-74
2023/01/03 04:14:49;;;;;;;;;;;;;;;9.04;69.56;102526.34;5015886;28;20348;-75
2023/01/03 04:17:15;;;;;;;;;;;;;;;9.02;69.46;102520.31;5015660;28;19970;-75
2023/01/03 04:19:40;;;;;;;;;;;;;;;9.00;69.48;102511.59;5014411;28;19921;-74
2023/01/03 04:22:05;;;;;;;;;;;;;;;9.00;69.37;102511.59;5015958;28;20255;-74
2023/01/03 04:24:30;;;;;;;;;;;;;;;8.98;69.46;102513.63;5015750;28;20016;-74
2023/01/03 04:26:56;;;;;;;;;;;;;;;8.97;69.59;102516.50;5014100;28;19928;-74
2023/01/03 04:29:21;;;;;;;;;;;;;;;8.96;69.62;102509.44;5015152;28;19929;-75
2023/01/03 04:31:46;;;;;;;;;;;;;;;8.95;69.64;102519.41;5014155;28;19917;-74
2023/01/03 04:34:11;;;;;;;;;;;;;;;8.93;69.36;102509.84;5015257;28;19913;-73
2023/01/03 04:36:37;;;;;;;;;;;;;;;8.92;69.41;102511.69;5015112;28;19952;-75
2023/01/03 04:39:02;;;;;;;;;;;;;;;8.90;69.25;102513.75;5014905;28;19922;-75
2023/01/03 04:41:27;;;;;;;;;;;;;;;8.88;69.53;102513.09;5015272;28;19914;-75
2023/01/03 04:44:03;;;;;;;;;;;;;;;8.87;69.45;102519.50;5014889;28;19917;-74
2023/01/03 04:46:32;;;;;;;;;;;;;;;8.85;69.41;102522.38;5015492;28;20416;-74
2023/01/03 04:48:57;;;;;;;;;;;;;;;8.83;69.45;102521.72;5015001;28;19913;-75
2023/01/03 04:51:22;;;;;;;;;;;;;;;8.82;69.32;102516.50;5015551;28;19968;-75
2023/01/03 04:53:47;;;;;;;;;;;;;;;8.81;69.47;102517.56;5014760;28;19918;-75
2023/01/03 04:56:13;;;;;;;;;;;;;;;8.79;69.36;102517.72;5013696;28;19932;-75
2023/01/03 04:58:38;;;;;;;;;;;;;;;8.77;69.51;102517.09;5014639;28;19971;-74
2023/01/03 05:01:04;;;;;;;;;;;;;;;8.76;69.49;102520.81;5014803;28;19917;-75
2023/01/03 05:03:29;;;;;;;;;;;;;;;8.76;69.48;102503.81;5014605;28;19940;-75
2023/01/03 05:06:01;;;;;;;;;;;;;;;8.74;69.34;102506.66;5014848;28;19924;-74
2023/01/03 05:08:27;;;;;;;;;;;;;;;8.73;69.45;102505.00;5013426;28;19917;-74
2023/01/03 05:10:52;;;;;;;;;;;;;;;8.72;69.48;102506.03;5014703;28;19919;-74
2023/01/03 05:13:17;;;;;;;;;;;;;;;8.70;69.36;102504.56;5013546;28;19968;-74
2023/01/03 05:15:43;;;;;;;;;;;;;;;8.69;69.23;102494.78;5014392;28;19921;-74
2023/01/03 05:18:08;;;;;;;;;;;;;;;8.69;69.48;102486.72;5014418;28;19969;-75
2023/01/03 05:26:06;;;;;;;;;;;;;;;8.64;69.28;102487.25;5015010;28;19956;-74
2023/01/03 05:28:32;;;;;;;;;;;;;;;8.63;69.30;102483.75;5014363;28;20006;-74
2023/01/03 05:30:57;;;;;;;;;;;;;;;8.63;69.33;102496.38;5013356;28;20008;-75
2023/01/03 05:33:23;;;;;;;;;;;;;;;8.60;69.46;102502.16;5014321;28;19913;-74
2023/01/03 05:35:49;;;;;;;;;;;;;;;8.60;69.43;102496.75;5014008;28;19913;-74
2023/01/03 05:38:15;;;;;;;;;;;;;;;8.58;69.28;102494.25;5014222;28;19972;-75
2023/01/03 05:40:40;;;;;;;;;;;;;;;8.57;69.28;102487.19;5014370;28;20299;-74
2023/01/03 05:43:06;;;;;;;;;;;;;;;8.57;69.37;102489.06;5014095;28;19913;-74
2023/01/03 05:45:31;;;;;;;;;;;;;;;8.56;69.21;102484.69;5013465;28;20012;-74
2023/01/03 05:47:57;;;;;;;;;;;;;;;8.54;69.61;102490.28;5013820;28;19917;-74
2023/01/03 05:50:22;;;;;;;;;;;;;;;8.53;69.62;102491.28;5014302;28;19928;-75
2023/01/03 05:52:48;;;;;;;;;;;;;;;8.53;69.59;102485.88;5014213;28;19913;-73
2023/01/03 05:55:14;;;;;;;;;;;;;;;8.51;69.51;102479.84;5014018;28;19940;-74
2023/01/03 05:57:39;;;;;;;;;;;;;;;8.50;69.40;102480.88;5014081;28;19975;-74
2023/01/03 06:00:04;;;;;;;;;;;;;;;8.49;69.41;102476.50;5014208;28;19921;-74
2023/01/03 06:02:30;;;;;;;;;;;;;;;8.48;69.48;102472.16;5012698;28;19917;-74
2023/01/03 06:04:55;;;;;;;;;;;;;;;8.48;69.40;102471.31;5013598;28;19913;-75
2023/01/03 06:07:20;;;;;;;;;;;;;;;8.47;69.54;102467.78;5013528;28;20384;-76
2023/01/03 06:09:45;;;;;;;;;;;;;;;8.47;69.50;102466.94;5013283;28;19972;-74
2023/01/03 06:12:11;;;;;;;;;;;;;;;8.44;69.53;102466.31;5014079;28;19997;-74
2023/01/03 06:14:36;;;;;;;;;;;;;;;8.44;69.40;102473.53;5013605;28;20392;-74
2023/01/03 06:19:45;;;;;;;;;;;;;;;8.42;69.68;102464.81;5013559;28;19932;-74
2023/01/03 06:22:10;;;;;;;;;;;;;;;8.41;69.76;102463.13;5013495;28;20301;-75
2023/01/03 06:24:35;;;;;;;;;;;;;;;8.40;69.53;102462.31;5013641;28;19924;-74
2023/01/03 06:27:01;;;;;;;;;;;;;;;8.38;69.52;102453.53;5015886;28;19944;-73
2023/01/03 06:29:26;;;;;;;;;;;;;;;8.38;69.55;102453.53;5017657;28;20222;-74
2023/01/03 06:31:51;;;;;;;;;;;;;;;8.36;69.80;102449.38;5017789;28;19921;-74
2023/01/03 06:34:17;;;;;;;;;;;;;;;8.36;69.50;102454.75;5016263;28;19917;-74
2023/01/03 06:36:42;;;;;;;;;;;;;;;8.34;69.55;102457.66;5017496;28;19924;-75
2023/01/03 06:39:07;;;;;;;;;;;;;;;8.35;69.63;102450.41;5017328;28;20008;-76
2023/01/03 06:41:32;;;;;;;;;;;;;;;8.33;69.71;102453.25;5017249;28;19968;-74
2023/01/03 06:43:58;;;;;;;;;;;;;;;8.32;69.47;102457.00;5017176;28;19972;-74
2023/01/03 06:54:41;;;;;;;;;;;;;;;8.29;69.76;102481.59;5017007;28;20360;-75
2023/01/03 06:57:06;;;;;;;;;;;;;;;8.28;69.64;102479.06;5016796;28;19918;-75
2023/01/03 06:59:31;;;;;;;;;;;;;;;8.27;69.81;102480.94;5016912;28;20270;-74
2023/01/03 07:01:57;;;;;;;;;;;;;;;8.24;69.90;102479.44;5015806;28;20323;-74
2023/01/03 07:04:23;;;;;;;;;;;;;;;8.26;69.73;102489.19;5016768;28;19921;-75
2023/01/03 07:06:48;;;;;;;;;;;;;;;8.24;69.73;102484.00;5032235;28;19918;-73
2023/01/03 07:09:14;;;;;;;;;;;;;;;8.23;69.69;102485.84;5016951;28;19917;-75
2023/01/03 07:11:40;;;;;;;;;;;;;;;8.23;69.74;102480.47;5016933;28;19924;-75
2023/01/03 07:14:07;;;;;;;;;;;;;;;8.22;70.11;102481.50;5016883;28;19917;-68
2023/01/03 07:16:37;;;;;;;;;;;;;;;8.22;69.69;102488.75;5016977;28;19986;-72
2023/01/03 07:19:04;;;;;;;;;;;;;;;8.21;69.94;102485.22;5016618;28;19917;-72
2023/01/03 07:21:30;;;;;;;;;;;;;;;8.21;70.00;102484.34;5016747;28;19940;-71
2023/01/03 07:23:56;;;;;;;;;;;;;;;8.20;69.89;102486.22;5017170;28;20006;-73
2023/01/03 07:26:23;;;;;;;;;;;;;;;8.19;69.77;102484.56;5016627;28;19976;-72
2023/01/03 07:28:48;;;;;;;;;;;;;;;8.21;70.09;102478.97;5016707;28;19920;-71
2023/01/03 07:31:13;;;;;;;;;;;;;;;8.19;69.71;102481.03;5016520;28;20302;-73
2023/01/03 07:33:39;;;;;;;;;;;;;;;8.19;69.97;102489.09;5016457;28;20357;-73
2023/01/03 07:36:05;;;;;;;;;;;;;;;8.19;69.81;102495.31;5015176;28;19917;-72
2023/01/03 07:38:30;;;;;;;;;;;;;;;8.18;69.85;102496.31;5014920;28;20323;-72
2023/01/03 07:41:00;;;;;;;;;;;;;;;8.17;69.81;102497.34;5015872;28;19913;-73
2023/01/03 07:43:38;;;;;;;;;;;;;;;8.16;69.92;102503.75;5016128;28;19914;-73
2023/01/03 07:46:23;;;;;;;;;;;;;;;8.15;69.91;102501.25;5016180;28;19913;-73
2023/01/03 07:48:51;;;;;;;;;;;;;;;8.14;69.70;102511.19;5016016;28;19956;-73
2023/01/03 07:51:18;;;;;;;;;;;;;;;8.14;69.91;102515.72;5015669;28;19914;-73
2023/01/03 07:53:43;;;;;;;;;;;;;;;8.12;69.76;102524.00;5016726;28;19917;-73
2023/01/03 07:56:10;;;;;;;;;;;;;;;8.12;69.79;102526.69;5015912;28;19959;-73
2023/01/03 07:58:35;;;;;;;;;;;;;;;8.11;69.95;102524.16;5016315;28;19914;-73
2023/01/03 08:01:05;;;;;;;;;;;;;;;8.11;70.04;102524.16;5015833;28;20405;-73
2023/01/03 08:03:30;;;;;;;;;;;;;;;8.11;69.96;102525.00;5015726;28;19920;-73
2023/01/03 08:05:58;;;;;;;;;;;;;;;8.11;69.84;102524.16;5014273;28;19917;-73
2023/01/03 08:08:23;;;;;;;;;;;;;;;8.09;69.94;102518.97;5015962;28;19935;-73
2023/01/03 08:13:33;;;;;;;;;;;;;;;8.09;70.05;102521.66;5016002;28;19920;-73
2023/01/03 08:15:59;;;;;;;;;;;;;;;8.10;70.05;102522.50;5015175;28;19917;-73
2023/01/03 08:18:25;;;;;;;;;;;;;;;8.09;70.08;102526.19;5015404;28;19965;-73
2023/01/03 08:20:53;;;;;;;;;;;;;;;8.10;70.04;102517.13;5015774;28;19932;-72
2023/01/03 08:23:19;;;;;;;;;;;;;;;8.10;69.90;102522.50;5015277;28;20238;-72
2023/01/03 08:25:44;;;;;;;;;;;;;;;8.09;70.09;102520.81;5015323;28;20459;-74
2023/01/03 08:28:10;;;;;;;;;;;;;;;8.10;70.24;102523.31;5015055;28;19918;-73
2023/01/03 08:30:39;;;;;;;;;;;;;;;8.11;70.01;102524.16;5015277;28;19913;-74
2023/01/03 08:33:06;;;;;;;;;;;;;;;8.09;69.99;102524.34;5015251;28;19968;-73
2023/01/03 08:35:33;;;;;;;;;;;;;;;8.10;70.08;102533.25;5015074;28;20011;-73
2023/01/03 08:38:00;;;;;;;;;;;;;;;8.10;70.01;102530.56;5014867;28;19920;-73
2023/01/03 08:40:26;;;;;;;;;;;;;;;8.08;70.04;102533.44;5013778;28;20004;-73
2023/01/03 08:42:52;;;;;;;;;;;;;;;8.10;69.92;102533.25;5014985;28;19924;-73
2023/01/03 08:45:17;;;;;;;;;;;;;;;8.09;70.15;102536.97;5014982;28;19918;-74
2023/01/03 08:47:44;;;;;;;;;;;;;;;8.09;70.27;102535.13;5014494;28;20269;-73
2023/01/03 08:50:10;;;;;;;;;;;;;;;8.09;70.06;102537.81;5014700;28;20015;-74
2023/01/03 08:52:35;;;;;;;;;;;;;;;8.09;70.22;102545.03;5015180;28;19914;-73
2023/01/03 08:55:00;;;;;;;;;;;;;;;8.09;70.09;102547.72;5014698;28;19923;-72
2023/01/03 08:57:25;;;;;;;;;;;;;;;8.10;70.22;102546.72;5014723;28;19960;-73
2023/01/03 08:59:51;;;;;;;;;;;;;;;8.09;70.26;102545.03;5014837;28;19923;-80
2023/01/03 09:02:16;;;;;;;;;;;;;;;8.10;70.05;102538.66;5014785;28;19924;-74
2023/01/03 09:04:41;;;;;;;;;;;;;;;8.09;70.19;102547.72;5014613;28;19921;-74
2023/01/03 09:07:06;;;;;;;;;;;;;;;8.09;70.19;102535.13;5014909;28;19925;-75
2023/01/03 09:09:32;;;;;;;;;;;;;;;8.10;70.29;102544.84;5014562;28;19921;-75
2023/01/03 09:11:57;;;;;;;;;;;;;;;8.10;70.14;102539.47;5014575;28;20364;-75
2023/01/03 09:14:23;;;;;;;;;;;;;;;8.10;70.09;102535.97;5014488;28;19917;-75
2023/01/03 09:16:48;;;;;;;;;;;;;;;8.11;70.20;102533.06;5014370;28;19921;-74
2023/01/03 09:19:13;;;;;;;;;;;;;;;8.11;70.36;102526.84;5012998;28;19924;-75
2023/01/03 09:21:38;;;;;;;;;;;;;;;8.10;70.04;102536.78;5013079;28;19968;-74
2023/01/03 09:24:04;;;;;;;;;;;;;;;8.10;70.07;102531.41;5014496;28;19953;-74
2023/01/03 09:26:29;;;;;;;;;;;;;;;8.11;70.00;102534.94;5014133;28;19960;-75
2023/01/03 09:28:54;;;;;;;;;;;;;;;8.10;70.14;102544.84;5014167;28;20337;-75
2023/01/03 09:31:20;;;;;;;;;;;;;;;8.10;70.25;102530.56;5014283;28;19917;-75
2023/01/03 09:33:45;;;;;;;;;;;;;;;8.11;70.17;102540.31;5014197;28;19917;-76
2023/01/03 09:36:10;;;;;;;;;;;;;;;8.11;70.13;102549.22;5014170;28;19920;-75
2023/01/03 09:38:36;;;;;;;;;;;;;;;8.11;70.17;102541.13;5013746;28;19914;-75
2023/01/03 09:41:04;;;;;;;;;;;;;;;8.12;70.43;102542.84;5014409;28;19925;-75
2023/01/03 09:43:49;;;;;;;;;;;;;;;8.12;70.28;102536.63;5014018;28;19914;-76
2023/01/03 09:46:16;;;;;;;;;;;;;;;8.11;70.11;102540.31;5014149;28;19913;-75
2023/01/03 09:48:42;;;;;;;;;;;;;;;8.11;70.20;102541.13;5013298;28;20274;-75
2023/01/03 10:05:40;;;;;;;;;;;;;;;8.12;70.09;102548.22;5014396;28;20364;-72
2023/01/03 10:08:08;;;;;;;;;;;;;;;8.12;70.13;102553.59;5013456;28;19959;-74
2023/01/03 10:10:49;;;;;;;;;;;;;;;8.13;70.33;102555.25;5013633;28;19913;-75
2023/01/03 10:13:29;;;;;;;;;;;;;;;8.13;70.35;102557.94;5013870;28;20430;-75
2023/01/03 10:16:07;;;;;;;;;;;;;;;8.14;70.34;102561.47;5014219;28;20302;-74
2023/01/03 10:18:52;;;;;;;;;;;;;;;8.13;70.50;102555.25;5012845;28;19972;-75
2023/01/03 10:21:21;;;;;;;;;;;;;;;8.14;70.27;102558.78;5011743;28;19913;-75
2023/01/03 10:23:47;;;;;;;;;;;;;;;8.15;70.46;102563.16;5013572;28;19909;-75
2023/01/03 10:26:12;;;;;;;;;;;;;;;8.16;70.48;102562.13;5012986;28;19921;-74
2023/01/03 10:28:40;;;;;;;;;;;;;;;8.15;70.54;102552.41;5013497;28;20016;-76
2023/01/03 10:31:05;;;;;;;;;;;;;;;8.16;70.57;102556.75;5014204;28;19913;-74
2023/01/03 10:33:41;;;;;;;;;;;;;;;8.17;70.36;102555.75;5013749;28;19914;-74
2023/01/03 10:36:07;;;;;;;;;;;;;;;8.17;70.37;102551.19;5013883;28;19913;-75
2023/01/03 10:38:33;;;;;;;;;;;;;;;8.17;70.56;102559.28;5014019;28;19921;-73
2023/01/03 10:40:59;;;;;;;;;;;;;;;8.18;70.31;102552.84;5012547;28;19917;-75
2023/01/03 10:43:31;;;;;;;;;;;;;;;8.19;70.43;102551.84;5013312;28;20395;-76
2023/01/03 10:46:01;;;;;;;;;;;;;;;8.20;70.30;102555.38;5013382;28;20373;-74
2023/01/03 10:48:40;;;;;;;;;;;;;;;8.20;70.49;102561.59;5013396;28;19913;-74
2023/01/03 10:51:20;;;;;;;;;;;;;;;8.20;70.44;102550.81;5013657;28;19920;-74
2023/01/03 10:53:46;;;;;;;;;;;;;;;8.20;70.42;102553.50;5013225;28;19913;-74
2023/01/03 10:56:14;;;;;;;;;;;;;;;8.20;70.53;102550.81;5013334;28;20051;-74
2023/01/03 10:58:39;;;;;;;;;;;;;;;8.20;70.34;102548.13;5012489;28;19936;-74
2023/01/03 11:01:10;;;;;;;;;;;;;;;8.21;70.52;102543.56;5013418;28;20358;-74
2023/01/03 11:03:38;;;;;;;;;;;;;;;8.20;70.66;102544.59;5013054;28;19929;-74
2023/01/03 11:06:04;;;;;;;;;;;;;;;8.20;70.54;102542.75;5013490;28;19913;-74
2023/01/03 11:08:38;;;;;;;;;;;;;;;8.22;70.41;102543.41;5013494;28;19914;-74
2023/01/03 11:11:03;;;;;;;;;;;;;;;8.21;70.69;102543.56;5013915;28;19917;-74
2023/01/03 11:13:32;;;;;;;;;;;;;;;8.22;70.77;102551.47;5016379;28;19932;-74
2023/01/03 11:15:58;;;;;;;;;;;;;;;8.23;70.82;102536.16;5015888;28;20268;-74
2023/01/03 11:18:27;;;;;;;;;;;;;;;8.24;70.80;102545.94;5016876;28;19992;-74
2023/01/03 11:21:16;;;;;;;;;;;;;;;8.25;70.63;102544.91;5016719;28;19919;-74
2023/01/03 11:23:48;;;;;;;;;;;;;;;8.24;70.69;102543.22;5015746;28;20008;-74
2023/01/03 11:26:22;;;;;;;;;;;;;;;8.24;70.69;102541.38;5016688;28;19918;-74
2023/01/03 11:28:56;;;;;;;;;;;;;;;8.26;70.83;102540.34;5016569;28;19920;-75
2023/01/03 11:31:21;;;;;;;;;;;;;;;8.27;70.76;102531.25;5015246;28;20396;-74
2023/01/03 11:33:58;;;;;;;;;;;;;;;8.29;70.77;102537.28;5016500;28;19949;-74
2023/01/03 11:36:27;;;;;;;;;;;;;;;8.29;70.97;102516.59;5015986;28;20260;-74
2023/01/03 11:39:07;;;;;;;;;;;;;;;8.31;70.79;102530.69;5016309;28;19995;-74
2023/01/03 11:41:38;;;;;;;;;;;;;;;8.32;70.63;102521.59;5017214;28;19936;-76
2023/01/03 11:44:29;;;;;;;;;;;;;;;8.35;70.72;102523.09;5016305;28;19944;-74
2023/01/03 11:46:58;;;;;;;;;;;;;;;8.36;70.64;102527.44;5013845;28;19910;-74
2023/01/03 11:49:32;;;;;;;;;;;;;;;8.38;70.61;102517.34;5015553;28;20266;-74
2023/01/03 11:51:57;;;;;;;;;;;;;;;8.38;70.74;102520.03;5016217;28;20369;-74
2023/01/03 11:54:35;;;;;;;;;;;;;;;8.40;70.52;102523.41;5016147;28;19917;-74
2023/01/03 11:57:05;;;;;;;;;;;;;;;8.40;70.62;102512.63;5016210;28;19953;-73
2023/01/03 11:59:33;;;;;;;;;;;;;;;8.41;70.46;102508.91;5016376;28;19925;-75
2023/01/03 12:02:17;;;;;;;;;;;;;;;8.41;70.66;102496.28;5015892;28;19919;-73
2023/01/03 12:04:58;;;;;;;;;;;;;;;8.42;70.44;102502.53;5014830;28;20294;-75
2023/01/03 12:07:28;;;;;;;;;;;;;;;8.42;70.57;102503.34;5015721;28;20292;-74
2023/01/03 12:10:02;;;;;;;;;;;;;;;8.44;70.46;102493.25;5016109;28;19917;-74
2023/01/03 12:12:36;;;;;;;;;;;;;;;8.46;70.40;102493.03;5015786;28;20349;-74
2023/01/03 12:15:04;;;;;;;;;;;;;;;8.46;70.48;102484.97;5015766;28;19917;-74
2023/01/03 12:17:39;;;;;;;;;;;;;;;8.48;70.54;102487.47;5015482;28;19914;-74
2023/01/03 12:20:15;;;;;;;;;;;;;;;8.49;70.52;102483.75;5016051;28;19913;-69
2023/01/03 12:22:48;;;;;;;;;;;;;;;8.51;70.62;102479.00;5015256;28;20305;-74
2023/01/03 12:25:16;;;;;;;;;;;;;;;8.55;70.78;102475.78;5015288;28;19925;-74
2023/01/03 12:28:02;;;;;;;;;;;;;;;8.57;70.55;102476.44;5014965;28;20014;-74
2023/01/03 12:30:41;;;;;;;;;;;;;;;8.59;70.59;102479.78;5014784;28;19913;-72
2023/01/03 12:33:06;;;;;;;;;;;;;;;8.59;70.69;102471.69;5015269;28;19921;-74
2023/01/03 12:35:43;;;;;;;;;;;;;;;8.59;70.81;102470.81;5015209;28;19914;-73
2023/01/03 12:38:09;;;;;;;;;;;;;;;8.60;70.65;102470.66;5015344;28;19913;-74
2023/01/03 12:40:40;;;;;;;;;;;;;;;8.62;70.76;102463.22;5015217;28;19914;-74
2023/01/03 12:43:24;;;;;;;;;;;;;;;8.63;70.90;102461.38;5015047;28;19920;-74
2023/01/03 12:45:59;;;;;;;;;;;;;;;8.66;70.66;102455.59;5014912;28;19913;-73
2023/01/03 12:48:24;;;;;;;;;;;;;;;8.68;70.72;102461.63;5015519;28;19914;-74
2023/01/03 12:50:50;;;;;;;;;;;;;;;8.69;70.65;102465.16;5015112;28;19920;-75
2023/01/03 12:53:21;;;;;;;;;;;;;;;8.71;70.93;102465.81;5014006;28;19990;-74
2023/01/03 12:56:05;;;;;;;;;;;;;;;8.72;70.90;102462.09;5014776;28;19968;-74
2023/01/03 12:58:35;;;;;;;;;;;;;;;8.74;70.72;102462.72;5014597;28;20436;-73
2023/01/03 13:01:03;;;;;;;;;;;;;;;8.76;70.71;102453.44;5015556;28;19914;-75
2023/01/03 13:03:34;;;;;;;;;;;;;;;8.77;70.48;102463.22;5014945;28;19913;-74
2023/01/03 13:06:04;;;;;;;;;;;;;;;8.80;70.52;102454.75;5014169;28;19923;-75
2023/01/03 13:08:32;;;;;;;;;;;;;;;8.82;70.75;102457.22;5014607;28;20362;-74
2023/01/03 13:11:00;;;;;;;;;;;;;;;8.82;70.62;102450.00;5013246;28;19942;-73
2023/01/03 13:13:25;;;;;;;;;;;;;;;8.84;70.54;102449.81;5015476;28;19920;-74
2023/01/03 13:15:52;;;;;;;;;;;;;;;8.86;70.61;102448.59;5014374;28;19925;-74
2023/01/03 13:18:20;;;;;;;;;;;;;;;8.87;70.57;102450.28;5014248;28;19960;-75
2023/01/03 13:20:46;;;;;;;;;;;;;;;8.88;70.57;102448.41;5014003;28;19968;-75
2023/01/03 13:23:30;;;;;;;;;;;;;;;8.90;70.47;102450.94;5014008;28;20377;-73
2023/01/03 13:26:09;;;;;;;;;;;;;;;8.90;70.55;102449.06;5012964;28;20075;-74
2023/01/03 13:28:40;;;;;;;;;;;;;;;8.91;70.54;102452.59;5013692;28;20290;-74
2023/01/03 13:31:17;;;;;;;;;;;;;;;8.91;70.60;102436.41;5014534;28;20373;-74
2023/01/03 13:34:01;;;;;;;;;;;;;;;8.92;70.52;102433.53;5013979;28;19913;-74
2023/01/03 13:36:46;;;;;;;;;;;;;;;8.93;70.71;102429.81;5013598;28;19967;-74
2023/01/03 13:39:30;;;;;;;;;;;;;;;8.94;70.59;102436.84;5013055;28;19921;-77
2023/01/03 13:41:55;;;;;;;;;;;;;;;8.97;70.48;102432.94;5014282;28;20016;-69
2023/01/03 13:44:23;;;;;;;;;;;;;;;8.98;70.60;102432.78;5014068;28;20044;-73